Currently 80°F in San Jacinto, California, USA
80°F
80°F / 53°F
1 mph W
0.00"
Saturday, October 21, 2017 2:06 PM PDT

San Jacinto, California Weather Summary
Last 36 Hours

Temperature Winds Hourly Humidity Dewpoint
Time Report Norm Report Norm Max Gusts Precip. Rpt. Norm Rpt. Norm Pressure
1,2Sat 02:06 PM  79.6°F  79°F  1 mph W  2 mph  6 mph  0.00"  24%  33%  38°F  46°F  30.08"
Sat 02:00 PM  78.9°F  79°F  1 mph W  2 mph  7 mph  0.00"  27%  33%  41°F  47°F  30.08"
Sat 01:00 PM  75.5°F  78°F  calm  3 mph  6 mph  0.00"  37%  35%  46°F  47°F  30.11"
Sat 12:00 PM  71.3°F  76°F  2 mph S  1 mph  5 mph  0.00"  46%  38%  49°F  47°F  30.13"
Sat 11:00 AM  66.3°F  72°F  1 mph SW  1 mph  5 mph  0.00"  60%  43%  51°F  48°F  30.14"
Sat 10:00 AM  62.5°F  68°F  2 mph SW  1 mph  6 mph  0.00"  67%  50%  51°F  48°F  30.14"
Sat 09:00 AM  57.0°F  63°F  2 mph W  1 mph  3 mph  0.00"  78%  57%  50°F  47°F  30.14"
Sat 08:00 AM  54.7°F  58°F  calm  1 mph  3 mph  0.00"  80%  65%  48°F  46°F  30.11"
3Sat 07:22 AM  52.8°F  56°F  calm  calm  3 mph  ----  79%  67%  46°F  45°F  30.11"
Sat 07:00 AM  53.3°F  56°F  2 mph SE  calm  3 mph  0.00"  81%  66%  47°F  45°F  30.10"
Sat 06:00 AM  55.7°F  57°F  calm  1 mph  none  0.00"  85%  65%  51°F  45°F  30.08"
Sat 05:00 AM  56.4°F  57°F  calm  calm  6 mph  0.00"  84%  65%  51°F  45°F  30.07"
Sat 04:00 AM  56.7°F  58°F  calm  calm  none  0.00"  83%  64%  51°F  45°F  30.06"
Sat 03:00 AM  57.6°F  59°F  calm  calm  6 mph  0.00"  81%  63%  52°F  46°F  30.06"
Sat 02:00 AM  58.7°F  59°F  calm  1 mph  5 mph  0.00"  79%  62%  52°F  46°F  30.06"
Sat 01:00 AM  59.1°F  60°F  3 mph SE  1 mph  9 mph  0.00"  79%  61%  52°F  46°F  30.06"
Sat 12:00 AM  59.7°F  62°F  4 mph S  calm  10 mph  0.00"  80%  58%  53°F  46°F  30.05"
Fri 11:00 PM  60.1°F  63°F  3 mph SW  1 mph  10 mph  0.00"  81%  58%  54°F  48°F  30.04"
Fri 10:00 PM  60.5°F  65°F  3 mph S  1 mph  11 mph  0.00"  80%  56%  54°F  48°F  30.02"
Fri 09:00 PM  60.9°F  67°F  4 mph S  1 mph  10 mph  0.00"  79%  53%  54°F  49°F  30.00"
Fri 08:00 PM  61.5°F  69°F  5 mph SW  1 mph  13 mph  0.00"  80%  51%  55°F  49°F  29.99"
Fri 07:00 PM  62.8°F  71°F  8 mph SW  2 mph  16 mph  0.00"  77%  46%  55°F  49°F  29.98"
Fri 06:00 PM  65.1°F  75°F  8 mph SW  2 mph  17 mph  0.00"  69%  41%  54°F  49°F  29.95"
Fri 05:00 PM  67.8°F  78°F  10 mph SW  3 mph  20 mph  0.00"  60%  37%  53°F  48°F  29.94"
Fri 04:00 PM  69.8°F  80°F  9 mph SW  3 mph  21 mph  0.00"  57%  34%  53°F  48°F  29.95"
Fri 03:00 PM  69.6°F  80°F  8 mph S  3 mph  20 mph  0.00"  57%  33%  53°F  47°F  29.97"
Fri 02:00 PM  70.8°F  79°F  10 mph S  2 mph  18 mph  0.00"  57%  34%  54°F  47°F  29.97"
Fri 01:00 PM  69.1°F  78°F  8 mph S  2 mph  17 mph  0.00"  60%  36%  54°F  48°F  30.00"
Fri 12:00 PM  67.0°F  76°F  10 mph SW  1 mph  16 mph  0.00"  63%  39%  54°F  48°F  30.02"
Fri 11:00 AM  65.7°F  72°F  8 mph SW  1 mph  16 mph  0.00"  64%  45%  53°F  49°F  30.03"
Fri 10:00 AM  63.5°F  68°F  3 mph S  1 mph  11 mph  0.00"  71%  52%  54°F  49°F  30.02"
Fri 09:00 AM  62.0°F  63°F  5 mph SW  1 mph  15 mph  0.00"  77%  59%  54°F  48°F  30.03"
Fri 08:00 AM  61.2°F  58°F  6 mph S  calm  13 mph  0.00"  79%  66%  54°F  46°F  30.01"
Fri 07:00 AM  61.4°F  56°F  6 mph SW  calm  11 mph  0.00"  83%  67%  56°F  45°F  30.00"
Fri 06:00 AM  61.9°F  57°F  6 mph S  calm  9 mph  0.00"  84%  66%  57°F  45°F  29.99"
Fri 05:00 AM  61.7°F  57°F  4 mph S  calm  7 mph  0.00"  84%  66%  57°F  46°F  29.98"
Fri 04:00 AM  61.8°F  58°F  5 mph SW  calm  9 mph  0.00"  84%  65%  57°F  46°F  29.99"
Fri 03:00 AM  62.2°F  59°F  4 mph S  calm  9 mph  0.00"  80%  64%  56°F  46°F  30.00"

  1. Current weather data. No green row appears if the current weather data is also the high or low for the current day.
  2. High temperature for the current day.
  3. Low temperature for the current day.

The San Jacinto, California weather pages are a service of WeatherCurrents. San Jacinto is located in the heart of the San Jacinto Valley, near Hemet, the Soboba Casino, and at the foot of the San Jacinto Mountains.
Copyright ©Sat Oct 21 14:08:01 PDT 2017  WeatherCurrents. All rights reserved. - Submit questions and comments - Privacy Policy

This page automatically refreshes every 10 minutes.